createdAt,value
2018-07-15T00:00:39.584Z,101402.94
2018-07-15T00:03:09.031Z,101400.48
2018-07-15T00:05:38.519Z,101396.60
2018-07-15T00:08:07.258Z,101398.84
2018-07-15T00:10:42.585Z,101404.98
2018-07-15T00:13:11.184Z,101405.02
2018-07-15T00:15:39.812Z,101398.91
2018-07-15T00:18:10.899Z,101399.06
2018-07-15T00:20:39.495Z,101398.64
2018-07-15T00:23:11.939Z,101393.07
2018-07-15T00:25:40.549Z,101392.21
2018-07-15T00:28:10.957Z,101383.13
2018-07-15T00:30:39.567Z,101391.84
2018-07-15T00:33:08.784Z,101385.44
2018-07-15T00:35:37.440Z,101387.59
2018-07-15T00:38:06.866Z,101391.88
2018-07-15T00:40:35.368Z,101388.03
2018-07-15T00:43:04.101Z,101385.06
2018-07-15T00:45:33.310Z,101383.44
2018-07-15T00:48:02.669Z,101382.16
2018-07-15T00:50:33.004Z,101386.55
2018-07-15T00:53:01.881Z,101387.84
2018-07-15T00:55:30.578Z,101390.45
2018-07-15T00:57:59.066Z,101387.87
2018-07-15T01:00:32.865Z,101386.64
2018-07-15T01:03:01.707Z,101383.59
2018-07-15T01:05:30.230Z,101381.09
2018-07-15T01:07:58.803Z,101386.41
2018-07-15T01:10:27.486Z,101388.23
2018-07-15T01:12:55.995Z,101382.26
2018-07-15T01:15:24.672Z,101380.22
2018-07-15T01:17:53.207Z,101385.62
2018-07-15T01:20:23.016Z,101380.91
2018-07-15T01:22:51.712Z,101375.27
2018-07-15T01:25:20.596Z,101371.83
2018-07-15T01:27:50.240Z,101375.80
2018-07-15T01:30:18.748Z,101373.71
2018-07-15T01:32:47.941Z,101372.02
2018-07-15T01:35:16.527Z,101378.16
2018-07-15T01:37:45.796Z,101373.42
2018-07-15T01:40:14.357Z,101373.84
2018-07-15T01:42:42.994Z,101375.14
2018-07-15T01:45:12.240Z,101373.42
2018-07-15T01:47:40.742Z,101376.92
2018-07-15T01:50:09.493Z,101376.88
2018-07-15T01:52:38.638Z,101366.48
2018-07-15T01:55:07.189Z,101369.16
2018-07-15T01:57:35.694Z,101367.06
2018-07-15T02:00:04.595Z,101371.94
2018-07-15T02:02:33.232Z,101373.27
2018-07-15T02:05:01.728Z,101372.03
2018-07-15T02:07:30.206Z,101367.38
2018-07-15T02:09:59.090Z,101374.76
2018-07-15T02:12:27.696Z,101376.12
2018-07-15T02:14:56.196Z,101373.59
2018-07-15T02:17:24.727Z,101373.20
2018-07-15T02:19:53.393Z,101369.06
2018-07-15T02:22:21.884Z,101367.84
2018-07-15T02:24:50.596Z,101370.45
2018-07-15T02:27:19.188Z,101367.84
2018-07-15T02:29:47.732Z,101367.91
2018-07-15T02:32:16.843Z,101362.30
2018-07-15T02:34:46.435Z,101367.16
2018-07-15T02:37:14.986Z,101374.58
2018-07-15T02:39:43.496Z,101369.08
2018-07-15T02:42:12.289Z,101367.92
2018-07-15T02:44:40.847Z,101367.61
2018-07-15T02:47:09.341Z,101367.28
2018-07-15T02:49:38.810Z,101365.18
2018-07-15T02:52:07.452Z,101365.66
2018-07-15T02:54:36.465Z,101365.71
2018-07-15T02:57:05.569Z,101369.17
2018-07-15T02:59:34.129Z,101370.95
2018-07-15T03:02:03.376Z,101367.94
2018-07-15T03:04:32.950Z,101364.97
2018-07-15T03:07:02.637Z,101364.09
2018-07-15T03:09:31.714Z,101362.80
2018-07-15T03:12:00.467Z,101365.39
2018-07-15T03:14:28.951Z,101360.63
2018-07-15T03:16:58.113Z,101362.33
2018-07-15T03:19:27.147Z,101361.45
2018-07-15T03:21:56.109Z,101367.50
2018-07-15T03:24:24.893Z,101355.39
2018-07-15T03:26:53.582Z,101362.31
2018-07-15T03:29:22.106Z,101362.27
2018-07-15T03:31:50.901Z,101359.72
2018-07-15T03:34:20.520Z,101356.66
2018-07-15T03:36:49.491Z,101357.50
2018-07-15T03:39:19.020Z,101359.61
2018-07-15T03:41:47.574Z,101360.03
2018-07-15T03:44:16.880Z,101360.91
2018-07-15T03:46:50.610Z,101362.64
2018-07-15T03:49:19.161Z,101363.89
2018-07-15T03:51:48.188Z,101363.45
2018-07-15T03:54:17.363Z,101351.02
2018-07-15T03:56:46.981Z,101349.78
2018-07-15T03:59:17.593Z,101348.97
2018-07-15T04:01:46.698Z,101350.27
2018-07-15T04:04:15.895Z,101347.23
2018-07-15T04:06:45.210Z,101346.77
2018-07-15T04:09:15.136Z,101348.06
2018-07-15T04:11:44.155Z,101339.03
2018-07-15T04:14:13.425Z,101347.67
2018-07-15T04:16:48.964Z,101350.27
2018-07-15T04:19:18.649Z,101348.11
2018-07-15T04:21:47.290Z,101341.25
2018-07-15T04:24:17.051Z,101346.97
2018-07-15T04:26:46.160Z,101345.58
2018-07-15T04:29:14.631Z,101350.17
2018-07-15T04:31:43.170Z,101342.87
2018-07-15T04:34:11.716Z,101349.69
2018-07-15T04:36:40.543Z,101351.78
2018-07-15T04:39:10.033Z,101352.66
2018-07-15T04:41:38.568Z,101350.06
2018-07-15T04:44:07.666Z,101348.48
2018-07-15T04:46:37.135Z,101347.34
2018-07-15T04:49:05.715Z,101353.02
2018-07-15T04:51:34.535Z,101351.34
2018-07-15T04:54:07.324Z,101349.13
2018-07-15T04:56:36.225Z,101353.03
2018-07-15T04:59:06.546Z,101350.42
2018-07-15T05:01:39.057Z,101355.83
2018-07-15T05:04:07.528Z,101344.48
2018-07-15T05:06:36.136Z,101346.58
2018-07-15T05:09:06.223Z,101349.07
2018-07-15T05:11:35.724Z,101350.31
2018-07-15T05:14:05.688Z,101349.56
2018-07-15T05:16:34.356Z,101353.61
2018-07-15T05:19:03.314Z,101354.59
2018-07-15T05:21:32.116Z,101353.18
2018-07-15T05:24:02.526Z,101354.48
2018-07-15T05:26:32.578Z,101359.56
2018-07-15T05:29:01.209Z,101354.75
2018-07-15T05:31:29.748Z,101357.18
2018-07-15T05:33:58.379Z,101356.21
2018-07-15T05:36:27.217Z,101365.73
2018-07-15T05:38:55.792Z,101367.28
2018-07-15T05:41:27.305Z,101367.28
2018-07-15T05:43:56.292Z,101368.27
2018-07-15T05:46:25.124Z,101373.39
2018-07-15T05:48:54.013Z,101374.47
2018-07-15T05:51:23.853Z,101376.50
2018-07-15T05:53:52.705Z,101372.05
2018-07-15T05:56:21.525Z,101381.88
2018-07-15T05:58:51.184Z,101374.39
2018-07-15T06:01:20.149Z,101376.92
2018-07-15T06:03:49.021Z,101379.59
2018-07-15T06:06:17.494Z,101376.92
2018-07-15T06:08:46.066Z,101376.98
2018-07-15T06:11:14.833Z,101382.91
2018-07-15T06:13:44.677Z,101384.34
2018-07-15T06:16:15.644Z,101382.17
2018-07-15T06:18:44.878Z,101375.86
2018-07-15T06:21:14.517Z,101380.75
2018-07-15T06:23:43.707Z,101377.13
2018-07-15T06:26:13.237Z,101376.08
2018-07-15T06:28:42.510Z,101378.16
2018-07-15T06:31:11.756Z,101372.40
2018-07-15T06:33:40.308Z,101372.69
2018-07-15T06:36:09.193Z,101371.70
2018-07-15T06:38:40.017Z,101371.55
2018-07-15T06:41:08.676Z,101377.33
2018-07-15T06:43:38.029Z,101373.13
2018-07-15T06:46:07.204Z,101370.46
2018-07-15T06:48:35.819Z,101374.24
2018-07-15T06:51:04.395Z,101369.77
2018-07-15T06:53:33.704Z,101368.75
2018-07-15T06:56:04.214Z,101370.97
2018-07-15T06:58:32.757Z,101369.95
2018-07-15T07:01:01.374Z,101371.78
2018-07-15T07:03:29.775Z,101368.67
2018-07-15T07:05:58.657Z,101365.91
2018-07-15T07:08:29.069Z,101370.59
2018-07-15T07:10:58.532Z,101366.67
2018-07-15T07:13:27.551Z,101364.01
2018-07-15T07:15:57.093Z,101370.41
2018-07-15T07:18:26.334Z,101366.44
2018-07-15T07:20:56.180Z,101377.53
2018-07-15T07:23:25.024Z,101370.91
2018-07-15T07:25:54.030Z,101370.22
2018-07-15T07:28:23.382Z,101370.05
2018-07-15T07:30:52.963Z,101361.65
2018-07-15T07:33:22.037Z,101361.86
2018-07-15T07:35:51.539Z,101369.48
2018-07-15T07:38:20.782Z,101369.72
2018-07-15T07:40:50.218Z,101368.40
2018-07-15T07:43:20.151Z,101377.17
2018-07-15T07:45:49.493Z,101368.06
2018-07-15T07:48:18.356Z,101367.02
2018-07-15T07:50:48.372Z,101367.19
2018-07-15T07:53:17.908Z,101368.71
2018-07-15T07:55:47.349Z,101366.30
2018-07-15T07:58:16.947Z,101373.45
2018-07-15T08:00:45.560Z,101360.78
2018-07-15T08:03:14.393Z,101363.38
2018-07-15T08:05:43.357Z,101364.48
2018-07-15T08:08:12.229Z,101362.41
2018-07-15T08:10:41.229Z,101364.48
2018-07-15T08:13:11.815Z,101355.72
2018-07-15T08:15:40.776Z,101346.37
2018-07-15T08:18:10.754Z,101359.19
2018-07-15T08:20:40.307Z,101354.95
2018-07-15T08:23:10.401Z,101359.37
2018-07-15T08:25:39.284Z,101353.88
2018-07-15T08:28:08.662Z,101357.53
2018-07-15T08:30:48.800Z,101354.30
2018-07-15T08:33:17.550Z,101355.95
2018-07-15T08:35:46.948Z,101352.03
2018-07-15T08:38:15.591Z,101351.45
2018-07-15T08:40:44.950Z,101349.06
2018-07-15T08:43:13.435Z,101344.41
2018-07-15T08:45:42.593Z,101350.24
2018-07-15T08:48:11.284Z,101352.20
2018-07-15T08:50:42.204Z,101354.27
2018-07-15T08:53:11.497Z,101355.26
2018-07-15T08:55:40.867Z,101350.86
2018-07-15T08:58:09.531Z,101349.14
2018-07-15T09:00:38.046Z,101347.43
2018-07-15T09:03:07.297Z,101346.09
2018-07-15T09:05:35.949Z,101344.67
2018-07-15T09:08:05.495Z,101351.09
2018-07-15T09:10:34.970Z,101342.41
2018-07-15T09:13:04.617Z,101346.63
2018-07-15T09:15:33.153Z,101338.59
2018-07-15T09:18:01.848Z,101342.77
2018-07-15T09:20:30.473Z,101344.27
2018-07-15T09:22:59.111Z,101336.66
2018-07-15T09:25:27.784Z,101340.33
2018-07-15T09:27:56.443Z,101338.31
2018-07-15T09:30:27.111Z,101341.78
2018-07-15T09:32:55.824Z,101333.31
2018-07-15T09:35:24.682Z,101333.09
2018-07-15T09:37:53.546Z,101332.59
2018-07-15T09:40:22.196Z,101322.61
2018-07-15T09:42:50.906Z,101324.14
2018-07-15T09:45:19.727Z,101324.31
2018-07-15T09:47:48.364Z,101323.62
2018-07-15T09:50:17.119Z,101319.22
2018-07-15T09:52:46.496Z,101325.69
2018-07-15T09:55:15.095Z,101319.55
2018-07-15T09:57:43.712Z,101319.62
2018-07-15T10:00:18.136Z,101325.03
2018-07-15T10:02:46.798Z,101315.20
2018-07-15T10:05:16.677Z,101313.82
2018-07-15T10:07:45.537Z,101315.14
2018-07-15T10:10:14.847Z,101306.81
2018-07-15T10:12:45.570Z,101303.23
2018-07-15T10:15:16.275Z,101300.17
2018-07-15T10:17:44.746Z,101302.56
2018-07-15T10:20:14.971Z,101301.75
2018-07-15T10:22:43.834Z,101293.90
2018-07-15T10:25:12.732Z,101292.36
2018-07-15T10:27:41.577Z,101295.88
2018-07-15T10:30:11.659Z,101285.72
2018-07-15T10:32:40.467Z,101291.87
2018-07-15T10:35:17.038Z,101290.09
2018-07-15T10:37:45.996Z,101285.17
2018-07-15T10:40:14.857Z,101282.19
2018-07-15T10:42:43.508Z,101279.62
2018-07-15T10:45:12.462Z,101272.89
2018-07-15T10:47:41.270Z,101283.19
2018-07-15T10:50:11.203Z,101275.64
2018-07-15T10:52:40.344Z,101268.01
2018-07-15T10:55:10.268Z,101266.17
2018-07-15T10:57:38.832Z,101263.54
2018-07-15T11:00:08.187Z,101261.58
2018-07-15T11:02:37.591Z,101264.48
2018-07-15T11:05:07.075Z,101259.94
2018-07-15T11:07:35.818Z,101254.83
2018-07-15T11:10:05.287Z,101251.45
2018-07-15T11:12:34.055Z,101248.27
2018-07-15T11:15:03.739Z,101253.23
2018-07-15T11:17:32.818Z,101250.91
2018-07-15T11:20:01.529Z,101245.39
2018-07-15T11:22:30.280Z,101240.16
2018-07-15T11:24:58.905Z,101236.11
2018-07-15T11:27:27.591Z,101243.41
2018-07-15T11:29:56.223Z,101233.85
2018-07-15T11:32:24.736Z,101237.50
2018-07-15T11:34:54.452Z,101244.72
2018-07-15T11:37:23.638Z,101236.06
2018-07-15T11:39:53.153Z,101235.26
2018-07-15T11:42:21.835Z,101234.61
2018-07-15T11:44:50.560Z,101233.39
2018-07-15T11:47:19.222Z,101230.06
2018-07-15T11:49:48.152Z,101230.01
2018-07-15T11:52:16.657Z,101226.73
2018-07-15T11:54:46.690Z,101225.09
2018-07-15T11:57:16.496Z,101222.89
2018-07-15T11:59:45.238Z,101222.27
2018-07-15T12:02:14.855Z,101224.42
2018-07-15T12:04:43.462Z,101218.41
2018-07-15T12:07:12.509Z,101215.45
2018-07-15T12:09:41.629Z,101203.84
2018-07-15T12:12:10.388Z,101215.36
2018-07-15T12:14:39.206Z,101202.01
2018-07-15T12:17:07.969Z,101200.29
2018-07-15T12:19:38.097Z,101201.70
2018-07-15T12:22:07.862Z,101200.45
2018-07-15T12:24:36.470Z,101199.58
2018-07-15T12:27:07.309Z,101189.34
2018-07-15T12:29:39.775Z,101190.06
2018-07-15T12:32:08.866Z,101190.56
2018-07-15T12:34:38.777Z,101189.33
2018-07-15T12:37:07.364Z,101183.31
2018-07-15T12:41:05.776Z,101185.15
2018-07-15T12:43:34.350Z,101182.08
2018-07-15T12:46:04.786Z,101175.84
2018-07-15T12:48:33.631Z,101179.44
2018-07-15T12:51:02.237Z,101181.25
2018-07-15T12:53:32.267Z,101171.16
2018-07-15T12:56:01.502Z,101166.17
2018-07-15T12:58:30.303Z,101160.89
2018-07-15T13:00:59.129Z,101172.41
2018-07-15T13:03:28.556Z,101157.72
2018-07-15T13:05:57.852Z,101162.14
2018-07-15T13:08:27.645Z,101153.76
2018-07-15T13:10:57.236Z,101155.29
2018-07-15T13:13:26.194Z,101146.30
2018-07-15T13:15:55.273Z,101142.02
2018-07-15T13:18:24.171Z,101133.78
2018-07-15T13:20:53.328Z,101128.48
2018-07-15T13:23:23.210Z,101134.23
2018-07-15T13:25:52.757Z,101123.47
2018-07-15T13:28:22.847Z,101122.35
2018-07-15T13:30:52.642Z,101119.88
2018-07-15T13:33:22.378Z,101134.17
2018-07-15T13:35:52.152Z,101128.43
2018-07-15T13:38:21.945Z,101122.98
2018-07-15T13:40:50.575Z,101116.60
2018-07-15T13:43:19.665Z,101114.19
2018-07-15T13:45:49.617Z,101110.64
2018-07-15T13:48:18.310Z,101119.22
2018-07-15T13:50:47.143Z,101118.39
2018-07-15T13:53:15.775Z,101118.27
2018-07-15T13:55:45.183Z,101112.50
2018-07-15T13:58:13.769Z,101111.55
2018-07-15T14:00:42.465Z,101116.20
2018-07-15T14:03:11.126Z,101112.53
2018-07-15T14:05:40.223Z,101114.23
2018-07-15T14:08:09.576Z,101108.86
2018-07-15T14:10:38.218Z,101105.53
2018-07-15T14:13:07.513Z,101098.82
2018-07-15T14:15:37.249Z,101100.28
2018-07-15T14:18:06.529Z,101102.50
2018-07-15T14:20:35.427Z,101099.62
2018-07-15T14:23:04.026Z,101093.30
2018-07-15T14:25:32.821Z,101091.44
2018-07-15T14:28:02.176Z,101091.19
2018-07-15T14:30:30.800Z,101093.17
2018-07-15T14:32:59.534Z,101082.70
2018-07-15T14:35:28.056Z,101085.19
2018-07-15T14:37:57.308Z,101079.84
2018-07-15T14:40:25.933Z,101078.52
2018-07-15T14:42:56.047Z,101073.98
2018-07-15T14:45:25.117Z,101075.88
2018-07-15T14:47:53.689Z,101075.25
2018-07-15T14:50:22.376Z,101070.38
2018-07-15T14:52:51.258Z,101073.27
2018-07-15T14:55:19.753Z,101074.55
2018-07-15T14:57:48.447Z,101068.20
2018-07-15T15:00:17.881Z,101067.15
2018-07-15T15:02:46.488Z,101061.84
2018-07-15T15:05:15.118Z,101063.17
2018-07-15T15:07:43.775Z,101050.64
2018-07-15T15:10:12.444Z,101055.56
2018-07-15T15:12:41.158Z,101053.77
2018-07-15T15:15:09.810Z,101051.75
2018-07-15T15:17:38.516Z,101051.20
2018-07-15T15:20:07.686Z,101046.53
2018-07-15T15:22:37.313Z,101046.38
2018-07-15T15:25:05.978Z,101052.17
2018-07-15T15:27:35.242Z,101050.99
2018-07-15T15:30:04.247Z,101045.75
2018-07-15T15:32:33.137Z,101045.56
2018-07-15T15:35:01.683Z,101034.91
2018-07-15T15:37:30.223Z,101034.80
2018-07-15T15:39:58.827Z,101034.02
2018-07-15T15:42:27.516Z,101032.66
2018-07-15T15:44:56.099Z,101032.70
2018-07-15T15:47:24.737Z,101029.56
2018-07-15T15:49:54.055Z,101023.73
2018-07-15T15:52:25.202Z,101022.59
2018-07-15T15:54:54.721Z,101027.14
2018-07-15T15:57:23.383Z,101020.95
2018-07-15T15:59:51.892Z,101016.73
2018-07-15T16:02:20.453Z,101013.82
2018-07-15T16:04:49.977Z,101008.77
2018-07-15T16:07:18.568Z,101014.45
2018-07-15T16:09:47.133Z,101022.91
2018-07-15T16:12:15.769Z,101015.23
2018-07-15T16:14:44.608Z,101007.44
2018-07-15T16:17:13.223Z,101008.62
2018-07-15T16:19:42.830Z,101005.73
2018-07-15T16:22:12.323Z,100998.48
2018-07-15T16:24:40.998Z,100994.05
2018-07-15T16:27:10.095Z,100997.40
2018-07-15T16:29:39.227Z,100991.99
2018-07-15T16:32:08.009Z,100984.28
2018-07-15T16:34:36.660Z,100984.50
2018-07-15T16:37:06.171Z,100988.61
2018-07-15T16:39:35.879Z,100984.59
2018-07-15T16:42:05.698Z,100990.88
2018-07-15T16:44:36.554Z,100988.94
2018-07-15T16:47:05.576Z,100987.22
2018-07-15T16:49:34.543Z,100981.64
2018-07-15T16:52:03.149Z,100985.34
2018-07-15T16:54:31.942Z,100983.22
2018-07-15T16:57:01.829Z,100979.48
2018-07-15T16:59:30.577Z,100987.70
2018-07-15T17:02:00.124Z,100987.96
2018-07-15T17:04:28.996Z,100985.77
2018-07-15T17:06:57.684Z,100980.44
2018-07-15T17:09:26.339Z,100982.23
2018-07-15T17:11:55.176Z,100980.77
2018-07-15T17:14:24.648Z,100976.89
2018-07-15T17:16:53.295Z,100982.53
2018-07-15T17:19:23.011Z,100978.59
2018-07-15T17:21:51.692Z,100987.34
2018-07-15T17:24:20.775Z,100989.27
2018-07-15T17:26:49.569Z,100990.72
2018-07-15T17:29:19.323Z,100988.38
2018-07-15T17:31:48.086Z,100992.53
2018-07-15T17:34:16.742Z,100989.78
2018-07-15T17:36:46.141Z,100990.53
2018-07-15T17:39:15.707Z,100985.77
2018-07-15T17:41:45.679Z,100987.87
2018-07-15T17:44:14.510Z,100991.85
2018-07-15T17:46:43.517Z,100989.45
2018-07-15T17:49:12.636Z,100994.89
2018-07-15T17:51:42.032Z,100991.19
2018-07-15T17:54:11.899Z,100992.95
2018-07-15T17:56:40.690Z,101002.22
2018-07-15T17:59:10.464Z,101004.57
2018-07-15T18:01:39.137Z,101013.69
2018-07-15T18:04:08.123Z,101007.84
2018-07-15T18:06:36.793Z,101008.31
2018-07-15T18:09:06.368Z,101010.47
2018-07-15T18:11:38.099Z,101013.28
2018-07-15T18:14:07.040Z,101012.23
2018-07-15T18:16:37.078Z,101013.92
2018-07-15T18:19:06.541Z,101013.88
2018-07-15T18:21:35.194Z,101016.39
2018-07-15T18:24:03.930Z,101015.91
2018-07-15T18:26:33.365Z,101014.85
2018-07-15T18:29:02.298Z,101010.03
2018-07-15T18:31:31.049Z,101010.12
2018-07-15T18:33:59.845Z,101018.45
2018-07-15T18:36:28.798Z,101011.66
2018-07-15T18:38:58.092Z,101018.64
2018-07-15T18:41:26.597Z,101013.84
2018-07-15T18:43:55.365Z,101018.89
2018-07-15T18:46:23.911Z,101022.23
2018-07-15T18:48:52.518Z,101019.78
2018-07-15T18:51:21.884Z,101028.66
2018-07-15T18:53:50.728Z,101021.13
2018-07-15T18:56:20.319Z,101018.75
2018-07-15T18:58:48.876Z,101009.79
2018-07-15T19:01:17.416Z,101017.34
2018-07-15T19:03:47.952Z,101015.92
2018-07-15T19:06:16.831Z,101020.48
2018-07-15T19:08:50.194Z,101025.06
2018-07-15T19:11:19.457Z,101025.13
2018-07-15T19:13:48.457Z,101028.62
2018-07-15T19:16:17.921Z,101028.87
2018-07-15T19:18:48.062Z,101024.34
2018-07-15T19:21:17.060Z,101033.38
2018-07-15T19:23:46.190Z,101029.28
2018-07-15T19:26:14.852Z,101026.37
2018-07-15T19:28:43.918Z,101027.91
2018-07-15T19:31:13.339Z,101035.17
2018-07-15T19:33:42.651Z,101033.63
2018-07-15T19:36:11.655Z,101042.52
2018-07-15T19:38:40.600Z,101044.06
2018-07-15T19:41:09.317Z,101045.47
2018-07-15T19:43:38.370Z,101047.86
2018-07-15T19:46:07.105Z,101048.09
2018-07-15T19:48:35.686Z,101046.19
2018-07-15T19:51:04.270Z,101050.87
2018-07-15T19:53:34.125Z,101044.17
2018-07-15T19:56:04.128Z,101049.94
2018-07-15T19:58:34.264Z,101050.72
2018-07-15T20:01:03.080Z,101050.64
2018-07-15T20:03:31.682Z,101043.91
2018-07-15T20:06:00.806Z,101044.28
2018-07-15T20:08:29.761Z,101047.52
2018-07-15T20:10:58.485Z,101045.97
2018-07-15T20:13:27.696Z,101050.51
2018-07-15T20:15:56.262Z,101053.34
2018-07-15T20:18:24.819Z,101047.09
2018-07-15T20:20:54.436Z,101043.47
2018-07-15T20:23:23.220Z,101045.91
2018-07-15T20:25:52.077Z,101046.21
2018-07-15T20:28:20.677Z,101045.66
2018-07-15T20:30:50.006Z,101038.46
2018-07-15T20:33:18.539Z,101038.61
2018-07-15T20:35:48.016Z,101039.73
2018-07-15T20:38:16.760Z,101039.39
2018-07-15T20:40:46.063Z,101043.07
2018-07-15T20:44:44.128Z,101042.61
2018-07-15T20:47:12.717Z,101049.97
2018-07-15T20:49:41.541Z,101055.10
2018-07-15T20:52:10.801Z,101050.01
2018-07-15T20:54:40.026Z,101055.25
2018-07-15T20:57:11.491Z,101050.75
2018-07-15T20:59:40.265Z,101054.17
2018-07-15T21:02:10.668Z,101053.60
2018-07-15T21:04:40.454Z,101051.72
2018-07-15T21:07:09.067Z,101054.80
2018-07-15T21:09:37.589Z,101063.38
2018-07-15T21:12:07.115Z,101059.25
2018-07-15T21:14:36.529Z,101061.15
2018-07-15T21:17:05.312Z,101057.81
2018-07-15T21:19:34.078Z,101064.05
2018-07-15T21:22:03.138Z,101071.33
2018-07-15T21:24:32.529Z,101073.69
2018-07-15T21:27:01.166Z,101072.52
2018-07-15T21:29:29.735Z,101064.27
2018-07-15T21:32:00.291Z,101072.70
2018-07-15T21:34:29.698Z,101079.51
2018-07-15T21:36:59.232Z,101080.95
2018-07-15T21:39:28.174Z,101086.55
2018-07-15T21:41:56.660Z,101084.52
2018-07-15T21:44:26.379Z,101087.66
2018-07-15T21:46:55.869Z,101087.84
2018-07-15T21:49:25.209Z,101083.92
2018-07-15T21:51:54.080Z,101093.61
2018-07-15T21:54:23.676Z,101081.48
2018-07-15T21:56:52.112Z,101090.31
2018-07-15T21:59:20.657Z,101085.98
2018-07-15T22:01:49.390Z,101086.52
2018-07-15T22:04:17.988Z,101087.10
2018-07-15T22:06:57.924Z,101097.16
2018-07-15T22:09:48.695Z,101099.85
2018-07-15T22:12:17.279Z,101090.80
2018-07-15T22:14:46.549Z,101091.73
2018-07-15T22:17:16.675Z,101097.91
2018-07-15T22:19:45.952Z,101097.18
2018-07-15T22:22:15.856Z,101090.86
2018-07-15T22:24:44.448Z,101097.89
2018-07-15T22:27:14.074Z,101093.66
2018-07-15T22:29:42.795Z,101089.73
2018-07-15T22:32:12.561Z,101087.20
2018-07-15T22:34:41.416Z,101086.84
2018-07-15T22:37:12.918Z,101086.59
2018-07-15T22:39:42.625Z,101087.09
2018-07-15T22:42:11.368Z,101087.63
2018-07-15T22:44:40.688Z,101091.67
2018-07-15T22:47:10.186Z,101088.77
2018-07-15T22:49:38.748Z,101088.48
2018-07-15T22:52:08.357Z,101088.08
2018-07-15T22:54:39.413Z,101095.14
2018-07-15T22:57:10.397Z,101090.41
2018-07-15T22:59:40.553Z,101088.83
2018-07-15T23:02:10.594Z,101091.06
2018-07-15T23:06:53.382Z,101092.82
2018-07-15T23:09:21.989Z,101086.50
2018-07-15T23:11:50.521Z,101088.78
2018-07-15T23:14:19.098Z,101090.25
2018-07-15T23:16:47.551Z,101082.25
2018-07-15T23:19:16.081Z,101083.67
2018-07-15T23:21:44.908Z,101085.48
2018-07-15T23:24:14.087Z,101088.16
2018-07-15T23:26:43.038Z,101088.20
2018-07-15T23:29:11.562Z,101083.96
2018-07-15T23:31:41.797Z,101085.31
2018-07-15T23:34:10.460Z,101085.05
2018-07-15T23:36:40.855Z,101086.52
2018-07-15T23:39:09.377Z,101089.62
2018-07-15T23:41:38.561Z,101080.27
2018-07-15T23:44:08.003Z,101083.00
2018-07-15T23:46:37.552Z,101083.12
2018-07-15T23:49:07.541Z,101075.37
2018-07-15T23:51:36.298Z,101080.22
2018-07-15T23:54:05.048Z,101079.93
2018-07-15T23:56:33.764Z,101082.66
2018-07-15T23:59:03.795Z,101079.75
